createdAt,value
2018-05-02T00:02:11.340Z,55.28
2018-05-02T00:04:37.281Z,55.16
2018-05-02T00:07:03.345Z,54.04
2018-05-02T00:09:29.297Z,56.34
2018-05-02T00:11:55.228Z,55.28
2018-05-02T00:14:21.146Z,53.90
2018-05-02T00:16:47.103Z,56.75
2018-05-02T00:19:13.040Z,56.51
2018-05-02T00:21:39.013Z,56.13
2018-05-02T00:24:04.953Z,56.97
2018-05-02T00:26:30.912Z,56.37
2018-05-02T00:28:56.866Z,55.94
2018-05-02T00:31:22.839Z,55.27
2018-05-02T00:33:48.771Z,56.29
2018-05-02T00:36:14.726Z,55.33
2018-05-02T00:38:40.659Z,54.99
2018-05-02T00:41:06.604Z,54.98
2018-05-02T00:43:32.540Z,55.21
2018-05-02T00:45:58.499Z,55.21
2018-05-02T00:48:24.425Z,55.17
2018-05-02T00:50:50.385Z,55.59
2018-05-02T00:53:16.341Z,54.79
2018-05-02T00:55:42.293Z,54.75
2018-05-02T00:58:08.271Z,55.36
2018-05-02T01:00:34.252Z,56.73
2018-05-02T01:03:00.218Z,57.79
2018-05-02T01:05:26.167Z,55.77
2018-05-02T01:07:52.168Z,55.55
2018-05-02T01:10:18.131Z,56.47
2018-05-02T01:12:44.075Z,56.17
2018-05-02T01:15:10.039Z,58.08
2018-05-02T01:17:35.991Z,57.16
2018-05-02T01:20:01.924Z,57.30
2018-05-02T01:22:27.863Z,57.48
2018-05-02T01:24:53.809Z,57.70
2018-05-02T01:27:19.752Z,59.05
2018-05-02T01:29:45.715Z,59.12
2018-05-02T01:32:11.681Z,58.76
2018-05-02T01:34:37.634Z,58.31
2018-05-02T01:37:03.574Z,57.26
2018-05-02T01:39:29.520Z,57.44
2018-05-02T01:41:55.504Z,57.29
2018-05-02T01:44:21.453Z,55.49
2018-05-02T01:46:47.406Z,54.89
2018-05-02T01:49:13.342Z,56.73
2018-05-02T01:51:39.285Z,58.05
2018-05-02T01:54:05.242Z,57.76
2018-05-02T01:56:31.182Z,55.54
2018-05-02T01:58:57.132Z,54.99
2018-05-02T02:01:23.079Z,57.15
2018-05-02T02:03:49.038Z,57.29
2018-05-02T02:06:14.984Z,56.73
2018-05-02T02:08:40.912Z,55.74
2018-05-02T02:11:06.857Z,56.42
2018-05-02T02:13:32.779Z,56.36
2018-05-02T02:15:58.716Z,56.01
2018-05-02T02:18:24.666Z,55.82
2018-05-02T02:20:50.617Z,58.07
2018-05-02T02:23:16.548Z,58.04
2018-05-02T02:25:42.504Z,59.07
2018-05-02T02:28:08.441Z,58.04
2018-05-02T02:30:34.415Z,57.46
2018-05-02T02:33:00.370Z,56.84
2018-05-02T02:35:26.301Z,56.58
2018-05-02T02:37:52.224Z,56.66
2018-05-02T02:40:18.168Z,57.12
2018-05-02T02:42:44.109Z,56.22
2018-05-02T02:45:10.092Z,56.85
2018-05-02T02:47:36.037Z,55.89
2018-05-02T02:50:01.978Z,58.41
2018-05-02T02:52:27.918Z,57.45
2018-05-02T02:54:53.874Z,56.59
2018-05-02T02:57:19.824Z,56.47
2018-05-02T02:59:45.788Z,56.38
2018-05-02T03:02:11.719Z,55.39
2018-05-02T03:04:37.669Z,57.22
2018-05-02T03:07:03.605Z,57.45
2018-05-02T03:09:29.568Z,56.23
2018-05-02T03:11:55.539Z,55.78
2018-05-02T03:14:21.529Z,56.48
2018-05-02T03:16:47.477Z,56.15
2018-05-02T03:19:13.447Z,55.02
2018-05-02T03:21:39.468Z,56.15
2018-05-02T03:24:05.438Z,58.16
2018-05-02T03:26:31.369Z,56.65
2018-05-02T03:28:57.331Z,55.67
2018-05-02T03:31:23.277Z,57.18
2018-05-02T03:33:49.236Z,57.95
2018-05-02T03:36:15.166Z,57.00
2018-05-02T03:38:41.133Z,57.46
2018-05-02T03:41:07.070Z,58.06
2018-05-02T03:43:33.003Z,57.86
2018-05-02T03:45:58.944Z,57.26
2018-05-02T03:48:24.900Z,57.40
2018-05-02T03:50:50.875Z,57.36
2018-05-02T03:53:16.823Z,57.88
2018-05-02T03:55:42.773Z,57.38
2018-05-02T03:58:08.701Z,58.06
2018-05-02T04:00:34.654Z,57.36
2018-05-02T04:03:00.586Z,57.43
2018-05-02T04:05:26.549Z,57.16
2018-05-02T04:07:52.481Z,57.79
2018-05-02T04:10:18.421Z,57.65
2018-05-02T04:12:44.371Z,58.46
2018-05-02T04:15:10.330Z,57.52
2018-05-02T04:17:36.257Z,57.73
2018-05-02T04:20:02.182Z,55.83
2018-05-02T04:22:28.120Z,58.13
2018-05-02T04:24:54.359Z,57.71
2018-05-02T04:27:20.304Z,57.40
2018-05-02T04:29:46.249Z,56.28
2018-05-02T04:32:12.206Z,57.47
2018-05-02T04:34:38.161Z,57.59
2018-05-02T04:37:04.123Z,56.88
2018-05-02T04:39:30.051Z,56.40
2018-05-02T04:41:55.990Z,56.33
2018-05-02T04:44:21.932Z,56.00
2018-05-02T04:46:48.066Z,56.36
2018-05-02T04:49:14.001Z,56.04
2018-05-02T04:51:39.953Z,57.45
2018-05-02T04:54:05.903Z,56.81
2018-05-02T04:56:31.856Z,57.15
2018-05-02T04:58:57.830Z,57.97
2018-05-02T05:01:23.898Z,57.23
2018-05-02T05:03:49.842Z,57.46
2018-05-02T05:06:15.811Z,57.12
2018-05-02T05:08:41.759Z,57.50
2018-05-02T05:11:07.718Z,57.83
2018-05-02T05:13:33.672Z,57.18
2018-05-02T05:15:59.623Z,56.19
2018-05-02T05:18:25.571Z,57.45
2018-05-02T05:20:51.526Z,58.41
2018-05-02T05:23:17.496Z,59.71
2018-05-02T05:25:43.440Z,59.59
2018-05-02T05:28:09.435Z,59.09
2018-05-02T05:30:35.368Z,59.22
2018-05-02T05:33:01.322Z,57.67
2018-05-02T05:35:27.261Z,59.18
2018-05-02T05:37:53.217Z,59.00
2018-05-02T05:40:19.153Z,58.98
2018-05-02T05:42:45.116Z,58.75
2018-05-02T05:45:11.076Z,58.27
2018-05-02T05:47:37.004Z,57.47
2018-05-02T05:50:02.967Z,56.95
2018-05-02T05:52:28.900Z,56.56
2018-05-02T05:54:54.859Z,56.72
2018-05-02T05:57:20.828Z,55.36
2018-05-02T05:59:46.792Z,55.06
2018-05-02T06:02:12.734Z,56.76
2018-05-02T06:04:38.689Z,56.49
2018-05-02T06:07:04.662Z,56.53
2018-05-02T06:09:30.619Z,57.41
2018-05-02T06:11:56.657Z,57.00
2018-05-02T06:14:22.630Z,56.13
2018-05-02T06:16:48.602Z,56.72
2018-05-02T06:19:14.553Z,56.36
2018-05-02T06:21:40.532Z,56.29
2018-05-02T06:24:06.466Z,57.50
2018-05-02T06:26:32.427Z,57.62
2018-05-02T06:28:58.508Z,58.72
2018-05-02T06:31:24.484Z,59.17
2018-05-02T06:33:50.418Z,59.04
2018-05-02T06:36:16.366Z,59.22
2018-05-02T06:38:42.319Z,58.82
2018-05-02T06:41:08.273Z,57.79
2018-05-02T06:43:34.238Z,58.08
2018-05-02T06:46:00.190Z,57.94
2018-05-02T06:48:26.140Z,58.16
2018-05-02T06:50:52.110Z,59.20
2018-05-02T06:53:18.545Z,59.26
2018-05-02T06:55:44.498Z,58.94
2018-05-02T06:58:10.484Z,58.57
2018-05-02T07:00:36.479Z,58.46
2018-05-02T07:03:02.428Z,58.80
2018-05-02T07:05:28.392Z,57.71
2018-05-02T07:07:54.326Z,57.01
2018-05-02T07:10:20.269Z,57.24
2018-05-02T07:12:46.205Z,56.42
2018-05-02T07:15:12.205Z,55.79
2018-05-02T07:17:38.139Z,55.52
2018-05-02T07:20:04.086Z,55.32
2018-05-02T07:22:30.081Z,55.93
2018-05-02T07:24:56.009Z,55.72
2018-05-02T07:27:21.941Z,56.03
2018-05-02T07:29:47.864Z,56.14
2018-05-02T07:32:13.807Z,55.61
2018-05-02T07:34:39.742Z,56.12
2018-05-02T07:37:05.694Z,56.26
2018-05-02T07:39:31.639Z,56.34
2018-05-02T07:41:57.593Z,57.82
2018-05-02T07:44:23.537Z,57.01
2018-05-02T07:46:49.500Z,56.62
2018-05-02T07:49:15.455Z,57.43
2018-05-02T07:51:41.426Z,57.60
2018-05-02T07:54:07.357Z,57.68
2018-05-02T07:56:33.378Z,54.45
2018-05-02T07:58:59.216Z,53.82
2018-05-02T08:01:25.178Z,53.67
2018-05-02T08:03:51.134Z,54.16
2018-05-02T08:06:17.105Z,53.69
2018-05-02T08:08:43.033Z,54.33
2018-05-02T08:11:09.066Z,52.49
2018-05-02T08:13:34.983Z,52.73
2018-05-02T08:16:00.942Z,53.13
2018-05-02T08:18:26.897Z,52.15
2018-05-02T08:20:52.849Z,52.10
2018-05-02T08:23:18.813Z,52.43
2018-05-02T08:25:44.758Z,52.06
2018-05-02T08:28:10.702Z,51.91
2018-05-02T08:30:36.652Z,52.11
2018-05-02T08:33:02.610Z,50.29
2018-05-02T08:35:28.553Z,50.96
2018-05-02T08:37:54.506Z,51.95
2018-05-02T08:40:20.453Z,51.79
2018-05-02T08:42:46.396Z,50.77
2018-05-02T08:45:12.382Z,49.68
2018-05-02T08:47:38.326Z,49.46
2018-05-02T08:50:04.289Z,49.55
2018-05-02T08:52:30.258Z,50.22
2018-05-02T08:54:56.229Z,49.55
2018-05-02T08:57:22.228Z,50.50
2018-05-02T08:59:48.187Z,50.52
2018-05-02T09:02:14.130Z,51.09
2018-05-02T09:04:40.109Z,49.68
2018-05-02T09:07:06.059Z,50.62
2018-05-02T09:09:32.025Z,50.13
2018-05-02T09:11:57.970Z,50.15
2018-05-02T09:14:23.930Z,49.94
2018-05-02T09:16:49.863Z,49.90
2018-05-02T09:19:15.829Z,49.75
2018-05-02T09:21:41.771Z,49.84
2018-05-02T09:24:07.739Z,49.53
2018-05-02T09:26:33.696Z,49.33
2018-05-02T09:28:59.644Z,49.38
2018-05-02T09:31:25.569Z,49.28
2018-05-02T09:33:51.513Z,49.89
2018-05-02T09:36:17.453Z,49.48
2018-05-02T09:38:43.432Z,48.70
2018-05-02T09:41:09.374Z,49.29
2018-05-02T09:43:35.452Z,48.87
2018-05-02T09:46:01.378Z,49.53
2018-05-02T09:48:27.327Z,48.44
2018-05-02T09:50:53.307Z,49.25
2018-05-02T09:53:19.240Z,48.73
2018-05-02T09:55:45.186Z,49.32
2018-05-02T09:58:11.167Z,49.51
2018-05-02T10:00:37.140Z,49.43
2018-05-02T10:03:03.084Z,49.33
2018-05-02T10:05:29.024Z,48.54
2018-05-02T10:07:54.969Z,49.59
2018-05-02T10:10:20.910Z,49.25
2018-05-02T10:12:46.873Z,49.40
2018-05-02T10:15:12.817Z,49.24
2018-05-02T10:17:38.752Z,49.22
2018-05-02T10:20:04.694Z,49.54
2018-05-02T10:22:30.648Z,48.95
2018-05-02T10:24:56.630Z,49.15
2018-05-02T10:27:22.571Z,49.05
2018-05-02T10:29:48.504Z,49.76
2018-05-02T10:32:14.453Z,49.29
2018-05-02T10:34:40.428Z,49.19
2018-05-02T10:37:06.385Z,49.10
2018-05-02T10:39:32.345Z,49.40
2018-05-02T10:41:58.315Z,48.99
2018-05-02T10:44:24.253Z,48.90
2018-05-02T10:46:50.205Z,48.65
2018-05-02T10:49:16.210Z,48.77
2018-05-02T10:51:42.091Z,48.92
2018-05-02T10:54:08.076Z,49.49
2018-05-02T10:56:34.028Z,48.72
2018-05-02T10:58:59.953Z,48.74
2018-05-02T11:01:25.903Z,49.57
2018-05-02T11:03:51.829Z,48.76
2018-05-02T11:06:17.754Z,48.66
2018-05-02T11:08:43.700Z,49.09
2018-05-02T11:11:09.664Z,48.71
2018-05-02T11:13:35.596Z,48.55
2018-05-02T11:16:01.532Z,48.22
2018-05-02T11:18:27.485Z,48.27
2018-05-02T11:20:53.450Z,48.60
2018-05-02T11:23:19.410Z,47.78
2018-05-02T11:25:45.368Z,47.98
2018-05-02T11:28:11.283Z,47.81
2018-05-02T11:30:37.217Z,47.61
2018-05-02T11:33:03.161Z,47.48
2018-05-02T11:35:29.098Z,47.91
2018-05-02T11:37:55.046Z,47.67
2018-05-02T11:40:21.004Z,47.75
2018-05-02T11:42:46.949Z,47.84
2018-05-02T11:45:12.901Z,47.62
2018-05-02T11:47:38.833Z,48.08
2018-05-02T11:50:04.782Z,47.69
2018-05-02T11:52:30.712Z,48.59
2018-05-02T11:54:56.661Z,47.76
2018-05-02T11:57:22.620Z,46.84
2018-05-02T11:59:48.589Z,47.37
2018-05-02T12:02:14.551Z,47.88
2018-05-02T12:04:40.494Z,47.87
2018-05-02T12:07:06.449Z,47.69
2018-05-02T12:09:32.374Z,47.50
2018-05-02T12:11:58.313Z,48.30
2018-05-02T12:14:24.249Z,48.23
2018-05-02T12:16:50.188Z,47.85
2018-05-02T12:19:16.136Z,48.03
2018-05-02T12:21:42.104Z,47.72
2018-05-02T12:24:08.035Z,48.09
2018-05-02T12:26:33.988Z,48.24
2018-05-02T12:28:59.936Z,48.11
2018-05-02T12:31:25.916Z,48.25
2018-05-02T12:33:51.884Z,48.03
2018-05-02T12:36:17.850Z,47.61
2018-05-02T12:38:43.773Z,47.86
2018-05-02T12:41:09.728Z,47.97
2018-05-02T12:43:35.682Z,47.79
2018-05-02T12:46:01.632Z,47.74
2018-05-02T12:48:27.588Z,48.13
2018-05-02T12:50:53.538Z,47.80
2018-05-02T12:53:19.503Z,48.05
2018-05-02T12:55:45.569Z,48.19
2018-05-02T12:58:11.438Z,47.98
2018-05-02T13:00:37.412Z,47.85
2018-05-02T13:03:03.409Z,47.61
2018-05-02T13:05:29.371Z,47.53
2018-05-02T13:07:55.325Z,47.65
2018-05-02T13:10:21.249Z,47.98
2018-05-02T13:12:47.192Z,48.07
2018-05-02T13:15:13.134Z,48.27
2018-05-02T13:17:39.097Z,48.22
2018-05-02T13:20:05.052Z,47.98
2018-05-02T13:22:31.021Z,48.05
2018-05-02T13:24:56.979Z,48.04
2018-05-02T13:27:22.914Z,47.75
2018-05-02T13:29:48.838Z,47.82
2018-05-02T13:32:14.784Z,48.19
2018-05-02T13:34:40.736Z,47.47
2018-05-02T13:37:06.689Z,47.78
2018-05-02T13:39:32.651Z,48.05
2018-05-02T13:41:58.600Z,48.06
2018-05-02T13:44:24.546Z,48.02
2018-05-02T13:46:50.505Z,47.75
2018-05-02T13:49:16.494Z,48.20
2018-05-02T13:51:42.465Z,47.10
2018-05-02T13:54:08.389Z,47.64
2018-05-02T13:56:34.331Z,48.03
2018-05-02T13:59:00.264Z,48.39
2018-05-02T14:01:26.227Z,48.55
2018-05-02T14:03:52.171Z,48.29
2018-05-02T14:06:18.143Z,48.90
2018-05-02T14:08:44.199Z,48.53
2018-05-02T14:11:10.186Z,48.39
2018-05-02T14:13:36.199Z,48.36
2018-05-02T14:16:02.337Z,48.37
2018-05-02T14:18:28.347Z,48.19
2018-05-02T14:20:54.285Z,48.16
2018-05-02T14:23:20.260Z,48.68
2018-05-02T14:25:46.232Z,48.57
2018-05-02T14:28:12.210Z,48.73
2018-05-02T14:30:38.149Z,48.63
2018-05-02T14:33:04.115Z,48.76
2018-05-02T14:35:30.071Z,49.04
2018-05-02T14:37:56.014Z,48.93
2018-05-02T14:40:21.941Z,49.10
2018-05-02T14:42:47.897Z,49.11
2018-05-02T14:45:13.873Z,49.13
2018-05-02T14:47:39.888Z,49.15
2018-05-02T14:50:05.936Z,49.19
2018-05-02T14:52:31.868Z,49.40
2018-05-02T14:54:57.815Z,49.45
2018-05-02T14:57:23.761Z,49.72
2018-05-02T14:59:49.714Z,49.56
2018-05-02T15:02:15.714Z,49.69
2018-05-02T15:04:41.635Z,49.61
2018-05-02T15:07:07.646Z,50.09
2018-05-02T15:09:34.184Z,49.85
2018-05-02T15:12:00.156Z,50.22
2018-05-02T15:14:26.148Z,50.33
2018-05-02T15:16:52.122Z,50.68
2018-05-02T15:19:18.084Z,51.31
2018-05-02T15:21:44.037Z,50.97
2018-05-02T15:24:09.981Z,50.72
2018-05-02T15:26:36.986Z,50.54
2018-05-02T15:29:02.982Z,50.58
2018-05-02T15:31:28.931Z,50.58
2018-05-02T15:33:54.995Z,51.02
2018-05-02T15:36:20.933Z,50.86
2018-05-02T15:38:46.891Z,50.95
2018-05-02T15:41:12.836Z,51.50
2018-05-02T15:43:38.787Z,50.60
2018-05-02T15:46:04.729Z,50.92
2018-05-02T15:48:30.690Z,50.60
2018-05-02T15:50:56.657Z,51.03
2018-05-02T15:53:22.629Z,50.84
2018-05-02T15:55:49.929Z,50.79
2018-05-02T15:58:16.066Z,50.79
2018-05-02T16:00:42.000Z,50.53
2018-05-02T16:03:07.949Z,50.34
2018-05-02T16:05:33.905Z,50.22
2018-05-02T16:07:59.857Z,50.17
2018-05-02T16:10:25.832Z,50.89
2018-05-02T16:12:51.774Z,50.18
2018-05-02T16:15:17.700Z,50.97
2018-05-02T16:17:43.622Z,50.40
2018-05-02T16:20:09.573Z,51.43
2018-05-02T16:22:35.559Z,50.87
2018-05-02T16:25:01.567Z,50.86
2018-05-02T16:27:27.532Z,50.82
2018-05-02T16:29:53.500Z,51.44
2018-05-02T16:32:20.600Z,51.62
2018-05-02T16:34:46.563Z,51.07
2018-05-02T16:37:12.513Z,51.21
2018-05-02T16:39:38.527Z,51.17
2018-05-02T16:42:04.585Z,51.13
2018-05-02T16:44:30.538Z,51.09
2018-05-02T16:46:56.498Z,51.21
2018-05-02T16:49:22.498Z,51.22
2018-05-02T16:51:48.557Z,51.36
2018-05-02T16:54:15.509Z,51.51
2018-05-02T16:56:41.582Z,51.54
2018-05-02T16:59:07.575Z,51.69
2018-05-02T17:01:33.542Z,51.20
2018-05-02T17:03:59.471Z,51.57
2018-05-02T17:06:25.817Z,51.77
2018-05-02T17:08:51.762Z,52.04
2018-05-02T17:11:17.795Z,52.01
2018-05-02T17:13:43.719Z,51.98
2018-05-02T17:16:09.679Z,51.51
2018-05-02T17:18:35.630Z,51.32
2018-05-02T17:21:01.683Z,51.60
2018-05-02T17:23:27.639Z,51.63
2018-05-02T17:25:53.631Z,51.66
2018-05-02T17:28:19.565Z,52.04
2018-05-02T17:30:45.523Z,51.62
2018-05-02T17:33:11.622Z,51.98
2018-05-02T17:35:37.578Z,52.07
2018-05-02T17:38:03.635Z,52.04
2018-05-02T17:40:29.588Z,52.26
2018-05-02T17:42:57.683Z,52.65
2018-05-02T17:45:23.642Z,52.18
2018-05-02T17:47:50.764Z,52.60
2018-05-02T17:50:16.730Z,52.39
2018-05-02T17:52:42.718Z,52.26
2018-05-02T17:55:08.843Z,52.16
2018-05-02T17:57:34.941Z,51.83
2018-05-02T18:00:00.884Z,51.73
2018-05-02T18:02:26.857Z,51.75
2018-05-02T18:04:52.813Z,51.92
2018-05-02T18:07:18.799Z,52.08
2018-05-02T18:09:44.803Z,51.71
2018-05-02T18:12:10.764Z,51.71
2018-05-02T18:17:08.407Z,51.50
2018-05-02T18:19:34.438Z,51.37
2018-05-02T18:22:00.432Z,51.51
2018-05-02T18:24:26.488Z,51.43
2018-05-02T18:26:52.506Z,51.56
2018-05-02T18:29:18.641Z,51.96
2018-05-02T18:31:44.613Z,52.01
2018-05-02T18:34:10.559Z,52.53
2018-05-02T18:36:36.619Z,52.41
2018-05-02T18:39:02.606Z,51.92
2018-05-02T18:41:28.595Z,52.15
2018-05-02T18:43:54.596Z,52.60
2018-05-02T18:46:20.563Z,52.31
2018-05-02T18:48:46.553Z,52.08
2018-05-02T18:51:12.570Z,52.14
2018-05-02T18:53:38.520Z,52.35
2018-05-02T18:56:04.475Z,51.99
2018-05-02T18:58:30.538Z,52.24
2018-05-02T19:00:56.469Z,52.49
2018-05-02T19:03:22.512Z,53.00
2018-05-02T19:05:48.495Z,53.42
2018-05-02T19:08:14.478Z,53.22
2018-05-02T19:10:40.461Z,53.34
2018-05-02T19:13:06.443Z,52.68
2018-05-02T19:15:32.438Z,52.43
2018-05-02T19:17:58.412Z,52.16
2018-05-02T19:20:24.406Z,52.11
2018-05-02T19:22:50.373Z,52.67
2018-05-02T19:25:16.421Z,53.03
2018-05-02T19:27:42.400Z,53.38
2018-05-02T19:30:08.361Z,53.32
2018-05-02T19:32:34.338Z,52.98
2018-05-02T19:35:00.361Z,53.50
2018-05-02T19:37:26.370Z,53.52
2018-05-02T19:39:52.385Z,53.37
2018-05-02T19:42:18.439Z,54.04
2018-05-02T19:44:44.429Z,54.36
2018-05-02T19:47:10.487Z,53.38
2018-05-02T19:49:36.460Z,53.25
2018-05-02T19:52:02.468Z,53.22
2018-05-02T19:54:28.586Z,53.65
2018-05-02T19:56:54.547Z,52.79
2018-05-02T19:59:20.630Z,53.42
2018-05-02T20:01:46.611Z,54.32
2018-05-02T20:04:12.579Z,54.03
2018-05-02T20:06:40.647Z,54.60
2018-05-02T20:09:06.620Z,54.07
2018-05-02T20:11:32.625Z,54.36
2018-05-02T20:13:58.585Z,54.02
2018-05-02T20:16:24.536Z,54.07
2018-05-02T20:18:50.569Z,53.82
2018-05-02T20:21:16.546Z,53.23
2018-05-02T20:23:42.491Z,53.48
2018-05-02T20:26:08.466Z,53.13
2018-05-02T20:28:34.418Z,54.07
2018-05-02T20:31:00.389Z,53.48
2018-05-02T20:33:26.363Z,53.32
2018-05-02T20:35:52.325Z,53.32
2018-05-02T20:38:18.268Z,53.50
2018-05-02T20:40:44.215Z,55.14
2018-05-02T20:43:10.203Z,55.90
2018-05-02T20:45:36.165Z,56.26
2018-05-02T20:48:02.119Z,55.84
2018-05-02T20:50:28.078Z,55.42
2018-05-02T20:52:54.026Z,54.84
2018-05-02T20:55:19.973Z,54.57
2018-05-02T20:57:45.910Z,54.62
2018-05-02T21:00:11.889Z,54.50
2018-05-02T21:02:37.847Z,54.69
2018-05-02T21:05:03.851Z,54.57
2018-05-02T21:07:29.803Z,54.29
2018-05-02T21:09:55.734Z,54.41
2018-05-02T21:12:21.673Z,54.90
2018-05-02T21:14:47.635Z,54.96
2018-05-02T21:17:13.652Z,54.51
2018-05-02T21:19:39.556Z,54.68
2018-05-02T21:22:05.506Z,54.94
2018-05-02T21:24:31.436Z,55.44
2018-05-02T21:26:57.400Z,55.17
2018-05-02T21:29:23.380Z,54.90
2018-05-02T21:31:49.345Z,55.03
2018-05-02T21:34:15.282Z,55.18
2018-05-02T21:36:41.235Z,54.94
2018-05-02T21:39:07.247Z,54.87
2018-05-02T21:41:33.182Z,55.30
2018-05-02T21:43:59.123Z,55.34
2018-05-02T21:46:25.228Z,55.10
2018-05-02T21:48:51.162Z,56.09
2018-05-02T21:51:17.159Z,55.79
2018-05-02T21:53:43.099Z,55.99
2018-05-02T21:56:09.059Z,57.03
2018-05-02T21:58:35.001Z,56.50
2018-05-02T22:01:00.965Z,57.37
2018-05-02T22:03:26.906Z,59.42
2018-05-02T22:05:52.857Z,59.14
2018-05-02T22:08:18.829Z,58.81
2018-05-02T22:10:44.789Z,60.97
2018-05-02T22:13:10.746Z,61.03
2018-05-02T22:15:36.678Z,61.98
2018-05-02T22:18:02.634Z,60.32
2018-05-02T22:20:28.597Z,59.47
2018-05-02T22:22:54.526Z,58.63
2018-05-02T22:25:20.508Z,58.82
2018-05-02T22:27:46.458Z,61.45
2018-05-02T22:30:12.900Z,59.84
2018-05-02T22:32:38.842Z,58.50
2018-05-02T22:35:04.923Z,59.12
2018-05-02T22:37:31.036Z,61.60
2018-05-02T22:39:56.971Z,61.89
2018-05-02T22:42:22.916Z,61.55
2018-05-02T22:44:48.851Z,61.17
2018-05-02T22:47:14.823Z,61.35
2018-05-02T22:49:40.815Z,60.16
2018-05-02T22:52:06.792Z,60.92
2018-05-02T22:57:05.218Z,61.04
2018-05-02T22:59:31.179Z,62.51
2018-05-02T23:01:57.123Z,61.51
2018-05-02T23:04:23.080Z,61.18
2018-05-02T23:06:49.054Z,62.11
2018-05-02T23:09:15.006Z,61.45
2018-05-02T23:11:40.965Z,60.67
2018-05-02T23:14:06.922Z,59.46
2018-05-02T23:16:32.872Z,59.50
2018-05-02T23:18:58.830Z,60.65
2018-05-02T23:21:24.781Z,59.83
2018-05-02T23:23:50.721Z,58.96
2018-05-02T23:26:16.669Z,59.87
2018-05-02T23:28:42.609Z,60.47
2018-05-02T23:31:08.588Z,59.62
2018-05-02T23:33:34.560Z,59.38
2018-05-02T23:36:00.522Z,60.01
2018-05-02T23:38:26.471Z,60.74
2018-05-02T23:40:52.427Z,61.29
2018-05-02T23:43:18.370Z,59.57
2018-05-02T23:45:44.318Z,59.63
2018-05-02T23:48:10.266Z,61.35
2018-05-02T23:50:36.276Z,60.95
2018-05-02T23:53:02.217Z,62.09
2018-05-02T23:55:28.157Z,61.48
2018-05-02T23:57:54.141Z,61.96
